Time;durP1;ratioP1;P1;durP2;ratioP2;P2;SDS_P1;SDS_P2;PMS_P1;PMS_P2;Temp;Humidity;BMP_temperature;BMP_pressure;BME280_temperature;BME280_humidity;BME280_pressure;Samples;Min_cycle;Max_cycle;Signal;HPM_P1;HPM_P2
2024/02/26 00:01:35;;;;;;;;;;;;;;;;;;4182325;28;19971;-57
2024/02/26 00:03:36;;;;;;;;;;;;;;;;;;4182226;28;19970;-58
2024/02/26 00:05:38;;;;;;;;;;;;;;;;;;4182290;28;19927;-57
2024/02/26 00:07:40;;;;;;;;;;;;;;;;;;4182249;28;19920;-57
2024/02/26 00:09:42;;;;;;;;;;;;;;;;;;4181492;28;19960;-58
2024/02/26 00:11:43;;;;;;;;;;;;;;;;;;4182323;28;19927;-57
2024/02/26 00:13:44;;;;;;;;;;;;;;;;;;4182089;28;19954;-57
2024/02/26 00:15:46;;;;;;;;;;;;;;;;;;4182173;28;20020;-56
2024/02/26 00:17:47;;;;;;;;;;;;;;;;;;4182147;28;19925;-58
2024/02/26 00:19:49;;;;;;;;;;;;;;;;;;4181887;28;20013;-57
2024/02/26 00:21:50;;;;;;;;;;;;;;;;;;4181989;28;19986;-57
2024/02/26 00:23:52;;;;;;;;;;;;;;;;;;4181852;28;20296;-56
2024/02/26 00:25:53;;;;;;;;;;;;;;;;;;4181715;28;19924;-56
2024/02/26 00:27:55;;;;;;;;;;;;;;;;;;4182012;28;19924;-57
2024/02/26 00:29:56;;;;;;;;;;;;;;;;;;4182002;28;19977;-57
2024/02/26 00:31:58;;;;;;;;;;;;;;;;;;4181946;28;19975;-57
2024/02/26 00:34:00;;;;;;;;;;;;;;;;;;4181775;28;19974;-58
2024/02/26 00:36:02;;;;;;;;;;;;;;;;;;4182098;28;19963;-56
2024/02/26 00:38:04;;;;;;;;;;;;;;;;;;4181947;28;19924;-58
2024/02/26 00:40:06;;;;;;;;;;;;;;;;;;4181446;28;20411;-57
2024/02/26 00:42:07;;;;;;;;;;;;;;;;;;4181509;28;19932;-56
2024/02/26 00:44:09;;;;;;;;;;;;;;;;;;4163883;28;20012;-58
2024/02/26 00:46:11;;;;;;;;;;;;;;;;;;4181805;28;19921;-57
2024/02/26 00:48:13;;;;;;;;;;;;;;;;;;4181537;28;19928;-57
2024/02/26 00:50:15;;;;;;;;;;;;;;;;;;4181702;28;20028;-57
2024/02/26 00:52:16;;;;;;;;;;;;;;;;;;4181608;28;19920;-56
2024/02/26 00:54:18;;;;;;;;;;;;;;;;;;4163844;28;19921;-57
2024/02/26 00:56:19;;;;;;;;;;;;;;;;;;4163610;28;19921;-56
2024/02/26 00:58:21;;;;;;;;;;;;;;;;;;4181597;28;19970;-58
2024/02/26 01:00:22;;;;;;;;;;;;;;;;;;4181249;28;19921;-56
2024/02/26 01:02:24;;;;;;;;;;;;;;;;;;4163717;28;19925;-57
2024/02/26 01:04:25;;;;;;;;;;;;;;;;;;4181031;28;19983;-56
2024/02/26 01:06:28;;;;;;;;;;;;;;;;;;4181278;28;20300;-57
2024/02/26 01:08:31;;;;;;;;;;;;;;;;;;4163958;28;19921;-57
2024/02/26 01:10:33;;;;;;;;;;;;;;;;;;4181477;28;19942;-58
2024/02/26 01:12:35;;;;;;;;;;;;;;;;;;4181306;28;19979;-57
2024/02/26 01:14:36;;;;;;;;;;;;;;;;;;4181157;28;19968;-57
2024/02/26 01:16:39;;;;;;;;;;;;;;;;;;4181439;28;19967;-56
2024/02/26 01:18:40;;;;;;;;;;;;;;;;;;4163331;28;19934;-57
2024/02/26 01:20:42;;;;;;;;;;;;;;;;;;4180956;28;20411;-57
2024/02/26 01:22:43;;;;;;;;;;;;;;;;;;4181403;28;19933;-57
2024/02/26 01:24:45;;;;;;;;;;;;;;;;;;4181242;28;19924;-57
2024/02/26 01:26:46;;;;;;;;;;;;;;;;;;4181287;28;19921;-57
2024/02/26 01:28:48;;;;;;;;;;;;;;;;;;4163370;28;19921;-57
2024/02/26 01:30:49;;;;;;;;;;;;;;;;;;4163557;28;19921;-57
2024/02/26 01:32:51;;;;;;;;;;;;;;;;;;4181303;28;19921;-57
2024/02/26 01:34:53;;;;;;;;;;;;;;;;;;4181032;28;19925;-55
2024/02/26 01:36:55;;;;;;;;;;;;;;;;;;4180949;28;20339;-57
2024/02/26 01:38:57;;;;;;;;;;;;;;;;;;4181011;28;20438;-57
2024/02/26 01:40:58;;;;;;;;;;;;;;;;;;4181342;28;19948;-56
2024/02/26 01:43:00;;;;;;;;;;;;;;;;;;4163509;28;19968;-56
2024/02/26 01:45:02;;;;;;;;;;;;;;;;;;4180927;28;19922;-57
2024/02/26 01:47:03;;;;;;;;;;;;;;;;;;4181116;28;19974;-57
2024/02/26 01:49:05;;;;;;;;;;;;;;;;;;4180991;28;20503;-57
2024/02/26 01:51:06;;;;;;;;;;;;;;;;;;4180757;28;20007;-57
2024/02/26 01:53:08;;;;;;;;;;;;;;;;;;4181352;28;19971;-58
2024/02/26 01:55:09;;;;;;;;;;;;;;;;;;4180948;28;20415;-56
2024/02/26 01:57:11;;;;;;;;;;;;;;;;;;4181388;28;19927;-57
2024/02/26 01:59:12;;;;;;;;;;;;;;;;;;4180115;28;20270;-57
2024/02/26 02:01:14;;;;;;;;;;;;;;;;;;4181393;28;20008;-58
2024/02/26 02:03:16;;;;;;;;;;;;;;;;;;4221785;22;19920;-57
2024/02/26 02:05:17;;;;;;;;;;;;;;;;;;4213808;28;19932;-57
2024/02/26 02:07:19;;;;;;;;;;;;;;;;;;4213988;28;20402;-57
2024/02/26 02:09:22;;;;;;;;;;;;;;;;;;4214091;28;19920;-57
2024/02/26 02:11:24;;;;;;;;;;;;;;;;;;4214153;28;19927;-56
2024/02/26 02:13:25;;;;;;;;;;;;;;;;;;4213856;28;19927;-57
2024/02/26 02:15:27;;;;;;;;;;;;;;;;;;4214099;28;19920;-57
2024/02/26 02:17:28;;;;;;;;;;;;;;;;;;4214046;28;19977;-56
2024/02/26 02:19:30;;;;;;;;;;;;;;;;;;4213996;28;19935;-57
2024/02/26 02:21:32;;;;;;;;;;;;;;;;;;4214367;28;20397;-57
2024/02/26 02:23:33;;;;;;;;;;;;;;;;;;4214058;28;20006;-57
2024/02/26 02:25:35;;;;;;;;;;;;;;;;;;4213875;28;19923;-57
2024/02/26 02:27:36;;;;;;;;;;;;;;;;;;4214095;28;19920;-57
2024/02/26 02:29:37;;;;;;;;;;;;;;;;;;4214097;28;20019;-57
2024/02/26 02:31:39;;;;;;;;;;;;;;;;;;4213810;28;19965;-58
2024/02/26 02:33:40;;;;;;;;;;;;;;;;;;4216467;28;20360;-57
2024/02/26 02:35:42;;;;;;;;;;;;;;;;;;4217027;28;19924;-57
2024/02/26 02:37:44;;;;;;;;;;;;;;;;;;4216986;28;19920;-56
2024/02/26 02:39:45;;;;;;;;;;;;;;;;;;4217084;28;19923;-57
2024/02/26 02:41:46;;;;;;;;;;;;;;;;;;4216693;28;19927;-56
2024/02/26 02:43:48;;;;;;;;;;;;;;;;;;4212891;28;20338;-57
2024/02/26 02:45:49;;;;;;;;;;;;;;;;;;4198692;28;20359;-57
2024/02/26 02:47:51;;;;;;;;;;;;;;;;;;4199902;28;20364;-57
2024/02/26 02:49:53;;;;;;;;;;;;;;;;;;4200199;28;20303;-56
2024/02/26 02:51:54;;;;;;;;;;;;;;;;;;4200024;28;19967;-57
2024/02/26 02:53:56;;;;;;;;;;;;;;;;;;4200060;28;19921;-57
2024/02/26 02:55:57;;;;;;;;;;;;;;;;;;4200350;28;19974;-57
2024/02/26 02:57:59;;;;;;;;;;;;;;;;;;4201401;28;19928;-57
2024/02/26 03:00:00;;;;;;;;;;;;;;;;;;4216498;28;19920;-57
2024/02/26 03:02:02;;;;;;;;;;;;;;;;;;4215887;28;19919;-57
2024/02/26 03:04:03;;;;;;;;;;;;;;;;;;4197581;28;19924;-57
2024/02/26 03:06:05;;;;;;;;;;;;;;;;;;4215047;28;19924;-56
2024/02/26 03:08:06;;;;;;;;;;;;;;;;;;4214847;28;19920;-56
2024/02/26 03:10:08;;;;;;;;;;;;;;;;;;4214882;28;19955;-56
2024/02/26 03:12:09;;;;;;;;;;;;;;;;;;4188628;28;19924;-57
2024/02/26 03:14:11;;;;;;;;;;;;;;;;;;4181952;28;20288;-56
2024/02/26 03:16:12;;;;;;;;;;;;;;;;;;4181553;28;20006;-57
2024/02/26 03:18:14;;;;;;;;;;;;;;;;;;4181654;28;20129;-56
2024/02/26 03:20:19;;;;;;;;;;;;;;;;;;4182414;28;19956;-57
2024/02/26 03:22:20;;;;;;;;;;;;;;;;;;4182130;28;19920;-57
2024/02/26 03:24:22;;;;;;;;;;;;;;;;;;4182682;28;19986;-57
2024/02/26 03:26:23;;;;;;;;;;;;;;;;;;4182822;28;19982;-57
2024/02/26 03:28:25;;;;;;;;;;;;;;;;;;4164968;28;19921;-56
2024/02/26 03:30:27;;;;;;;;;;;;;;;;;;4182701;28;19921;-57
2024/02/26 03:32:28;;;;;;;;;;;;;;;;;;4182798;28;20015;-56
2024/02/26 03:34:36;;;;;;;;;;;;;;;;;;4182689;28;20284;-57
2024/02/26 03:36:38;;;;;;;;;;;;;;;;;;4182831;28;19925;-57
2024/02/26 03:38:40;;;;;;;;;;;;;;;;;;4182821;28;19924;-57
2024/02/26 03:40:41;;;;;;;;;;;;;;;;;;4182662;28;20020;-57
2024/02/26 03:42:43;;;;;;;;;;;;;;;;;;4182732;28;20440;-57
2024/02/26 03:44:44;;;;;;;;;;;;;;;;;;4181349;28;19921;-57
2024/02/26 03:46:46;;;;;;;;;;;;;;;;;;4182547;28;19921;-57
2024/02/26 03:48:48;;;;;;;;;;;;;;;;;;4192404;28;19982;-56
2024/02/26 03:50:49;;;;;;;;;;;;;;;;;;4198906;28;19924;-57
2024/02/26 03:52:51;;;;;;;;;;;;;;;;;;4199230;28;19920;-57
2024/02/26 03:54:52;;;;;;;;;;;;;;;;;;4205878;28;19975;-57
2024/02/26 03:56:54;;;;;;;;;;;;;;;;;;4215643;28;19920;-56
2024/02/26 03:58:55;;;;;;;;;;;;;;;;;;4215648;28;19919;-57
2024/02/26 04:00:57;;;;;;;;;;;;;;;;;;4215371;28;19970;-57
2024/02/26 04:02:58;;;;;;;;;;;;;;;;;;4215268;28;20379;-57
2024/02/26 04:05:00;;;;;;;;;;;;;;;;;;4215485;28;19920;-57
2024/02/26 04:07:01;;;;;;;;;;;;;;;;;;4212122;28;20393;-57
2024/02/26 04:09:03;;;;;;;;;;;;;;;;;;4182098;28;19929;-56
2024/02/26 04:11:07;;;;;;;;;;;;;;;;;;4182007;28;19936;-57
2024/02/26 04:13:09;;;;;;;;;;;;;;;;;;4182250;28;20020;-57
2024/02/26 04:15:10;;;;;;;;;;;;;;;;;;4182097;28;19927;-57
2024/02/26 04:17:12;;;;;;;;;;;;;;;;;;4182023;28;20016;-57
2024/02/26 04:19:13;;;;;;;;;;;;;;;;;;4182297;28;19928;-56
2024/02/26 04:21:15;;;;;;;;;;;;;;;;;;4181923;28;19968;-57
2024/02/26 04:23:17;;;;;;;;;;;;;;;;;;4181893;28;19921;-57
2024/02/26 04:25:18;;;;;;;;;;;;;;;;;;4182097;28;20288;-57
2024/02/26 04:27:19;;;;;;;;;;;;;;;;;;4181983;28;19921;-57
2024/02/26 04:29:21;;;;;;;;;;;;;;;;;;4181991;28;19920;-58
2024/02/26 04:31:22;;;;;;;;;;;;;;;;;;4181821;28;19959;-57
2024/02/26 04:33:24;;;;;;;;;;;;;;;;;;4181694;28;19928;-57
2024/02/26 04:35:26;;;;;;;;;;;;;;;;;;4181926;28;19970;-57
2024/02/26 04:37:30;;;;;;;;;;;;;;;;;;4181679;28;20002;-57
2024/02/26 04:39:32;;;;;;;;;;;;;;;;;;4181667;28;19920;-57
2024/02/26 04:41:34;;;;;;;;;;;;;;;;;;4181439;28;20376;-57
2024/02/26 04:43:41;;;;;;;;;;;;;;;;;;4181716;28;19921;-57
2024/02/26 04:45:42;;;;;;;;;;;;;;;;;;4181521;28;19989;-57
2024/02/26 04:47:44;;;;;;;;;;;;;;;;;;4181634;28;19924;-57
2024/02/26 04:49:45;;;;;;;;;;;;;;;;;;4181523;28;19920;-57
2024/02/26 04:51:48;;;;;;;;;;;;;;;;;;4205939;28;19977;-57
2024/02/26 04:53:49;;;;;;;;;;;;;;;;;;4214763;28;20333;-57
2024/02/26 04:55:51;;;;;;;;;;;;;;;;;;4214272;28;19920;-57
2024/02/26 04:57:53;;;;;;;;;;;;;;;;;;4214776;28;19965;-58
2024/02/26 04:59:54;;;;;;;;;;;;;;;;;;4214501;28;19931;-57
2024/02/26 05:01:56;;;;;;;;;;;;;;;;;;4214543;28;20321;-57
2024/02/26 05:03:57;;;;;;;;;;;;;;;;;;4200182;28;20007;-57
2024/02/26 05:06:00;;;;;;;;;;;;;;;;;;4181314;28;20004;-56
2024/02/26 05:08:02;;;;;;;;;;;;;;;;;;4180818;28;19986;-57
2024/02/26 05:10:04;;;;;;;;;;;;;;;;;;4179965;28;19986;-56
2024/02/26 05:12:06;;;;;;;;;;;;;;;;;;4181016;28;19921;-57
2024/02/26 05:14:07;;;;;;;;;;;;;;;;;;4181135;28;20372;-57
2024/02/26 05:16:09;;;;;;;;;;;;;;;;;;4163480;28;19928;-57
2024/02/26 05:18:10;;;;;;;;;;;;;;;;;;4180340;28;19967;-56
2024/02/26 05:20:12;;;;;;;;;;;;;;;;;;4181029;28;20044;-57
2024/02/26 05:22:13;;;;;;;;;;;;;;;;;;4181085;28;20184;-57
2024/02/26 05:24:17;;;;;;;;;;;;;;;;;;4181176;28;19924;-57
2024/02/26 05:26:18;;;;;;;;;;;;;;;;;;4180997;28;20341;-57
2024/02/26 05:28:20;;;;;;;;;;;;;;;;;;4181226;28;20379;-57
2024/02/26 05:30:22;;;;;;;;;;;;;;;;;;4181309;28;19964;-56
2024/02/26 05:32:23;;;;;;;;;;;;;;;;;;4181440;28;19932;-57
2024/02/26 05:34:25;;;;;;;;;;;;;;;;;;4181214;28;19924;-57
2024/02/26 05:36:28;;;;;;;;;;;;;;;;;;4180968;28;19921;-57
2024/02/26 05:38:31;;;;;;;;;;;;;;;;;;4180958;28;20269;-57
2024/02/26 05:40:32;;;;;;;;;;;;;;;;;;4184829;28;20003;-57
2024/02/26 05:42:34;;;;;;;;;;;;;;;;;;4163226;28;19943;-57
2024/02/26 05:44:35;;;;;;;;;;;;;;;;;;4192896;28;19925;-57
2024/02/26 05:46:37;;;;;;;;;;;;;;;;;;4192034;28;20280;-57
2024/02/26 05:48:38;;;;;;;;;;;;;;;;;;4186794;28;20383;-57
2024/02/26 05:50:40;;;;;;;;;;;;;;;;;;4190393;28;20046;-57
2024/02/26 05:52:42;;;;;;;;;;;;;;;;;;4187021;28;19925;-57
2024/02/26 05:54:44;;;;;;;;;;;;;;;;;;4181153;28;19921;-57
2024/02/26 05:56:46;;;;;;;;;;;;;;;;;;4180766;28;20396;-57
2024/02/26 05:58:48;;;;;;;;;;;;;;;;;;4181137;28;19979;-57
2024/02/26 06:00:49;;;;;;;;;;;;;;;;;;4180674;28;19925;-56
2024/02/26 06:02:51;;;;;;;;;;;;;;;;;;4180378;28;19931;-56
2024/02/26 06:04:52;;;;;;;;;;;;;;;;;;4180919;28;19924;-57
2024/02/26 06:06:54;;;;;;;;;;;;;;;;;;4181236;28;19924;-57
2024/02/26 06:08:55;;;;;;;;;;;;;;;;;;4183994;28;19932;-56
2024/02/26 06:10:57;;;;;;;;;;;;;;;;;;4183803;28;19921;-56
2024/02/26 06:12:58;;;;;;;;;;;;;;;;;;4183690;28;19927;-57
2024/02/26 06:15:01;;;;;;;;;;;;;;;;;;4183606;28;19933;-57
2024/02/26 06:17:02;;;;;;;;;;;;;;;;;;4183533;28;19921;-58
2024/02/26 06:19:04;;;;;;;;;;;;;;;;;;4183684;28;19979;-56
2024/02/26 06:21:06;;;;;;;;;;;;;;;;;;4183431;28;19928;-56
2024/02/26 06:23:07;;;;;;;;;;;;;;;;;;4183823;28;19920;-57
2024/02/26 06:25:09;;;;;;;;;;;;;;;;;;4183836;28;19921;-62
2024/02/26 06:27:11;;;;;;;;;;;;;;;;;;4183770;28;19921;-62
2024/02/26 06:29:12;;;;;;;;;;;;;;;;;;4184032;28;20358;-61
2024/02/26 06:31:14;;;;;;;;;;;;;;;;;;4187384;28;19925;-62
2024/02/26 06:33:15;;;;;;;;;;;;;;;;;;4192448;28;19924;-62
2024/02/26 06:35:17;;;;;;;;;;;;;;;;;;4200081;28;19928;-63
2024/02/26 06:37:18;;;;;;;;;;;;;;;;;;4199904;28;20076;-62
2024/02/26 06:39:20;;;;;;;;;;;;;;;;;;4200068;28;19928;-62
2024/02/26 06:41:26;;;;;;;;;;;;;;;;;;4199878;28;19920;-62
2024/02/26 06:43:28;;;;;;;;;;;;;;;;;;4205214;28;19920;-63
2024/02/26 06:45:30;;;;;;;;;;;;;;;;;;4216736;28;19966;-62
2024/02/26 06:47:31;;;;;;;;;;;;;;;;;;4216788;28;19927;-62
2024/02/26 06:49:33;;;;;;;;;;;;;;;;;;4216696;28;20375;-62
2024/02/26 06:51:34;;;;;;;;;;;;;;;;;;4216972;28;19920;-61
2024/02/26 06:53:36;;;;;;;;;;;;;;;;;;4216501;28;19920;-62
2024/02/26 06:55:40;;;;;;;;;;;;;;;;;;4216336;28;19920;-62
2024/02/26 06:57:41;;;;;;;;;;;;;;;;;;4183360;28;19925;-62
2024/02/26 06:59:46;;;;;;;;;;;;;;;;;;4183238;28;19924;-62
2024/02/26 07:01:47;;;;;;;;;;;;;;;;;;4182524;28;19925;-62
2024/02/26 07:03:49;;;;;;;;;;;;;;;;;;4183178;28;19971;-62
2024/02/26 07:05:50;;;;;;;;;;;;;;;;;;4183108;28;19976;-62
2024/02/26 07:07:52;;;;;;;;;;;;;;;;;;4182972;28;19924;-62
2024/02/26 07:09:54;;;;;;;;;;;;;;;;;;4183152;28;19974;-62
2024/02/26 07:11:56;;;;;;;;;;;;;;;;;;4182926;28;20007;-62
2024/02/26 07:14:01;;;;;;;;;;;;;;;;;;4183196;28;19936;-62
2024/02/26 07:16:02;;;;;;;;;;;;;;;;;;4182904;28;20376;-62
2024/02/26 07:18:04;;;;;;;;;;;;;;;;;;4182910;28;19924;-62
2024/02/26 07:20:05;;;;;;;;;;;;;;;;;;4165231;28;20296;-62
2024/02/26 07:22:10;;;;;;;;;;;;;;;;;;4183054;28;19920;-62
2024/02/26 07:24:12;;;;;;;;;;;;;;;;;;4182861;28;19974;-62
2024/02/26 07:26:14;;;;;;;;;;;;;;;;;;4182840;28;19928;-62
2024/02/26 07:28:20;;;;;;;;;;;;;;;;;;4165813;28;19921;-62
2024/02/26 07:30:21;;;;;;;;;;;;;;;;;;4182764;28;19944;-63
2024/02/26 07:32:23;;;;;;;;;;;;;;;;;;4182930;28;20003;-63
2024/02/26 07:34:28;;;;;;;;;;;;;;;;;;4164946;28;20392;-62
2024/02/26 07:36:30;;;;;;;;;;;;;;;;;;4182764;28;19921;-62
2024/02/26 07:38:32;;;;;;;;;;;;;;;;;;4182893;28;19921;-62
2024/02/26 07:40:42;;;;;;;;;;;;;;;;;;4191947;28;19924;-62
2024/02/26 07:42:53;;;;;;;;;;;;;;;;;;4216458;28;19920;-63
2024/02/26 07:44:55;;;;;;;;;;;;;;;;;;4215534;28;19923;-62
2024/02/26 07:46:57;;;;;;;;;;;;;;;;;;4215744;28;19924;-62
2024/02/26 07:48:58;;;;;;;;;;;;;;;;;;4216028;28;19965;-62
2024/02/26 07:51:00;;;;;;;;;;;;;;;;;;4215728;28;19927;-62
2024/02/26 07:53:01;;;;;;;;;;;;;;;;;;4195993;28;19920;-62
2024/02/26 07:55:03;;;;;;;;;;;;;;;;;;4182659;28;20355;-62
2024/02/26 07:57:07;;;;;;;;;;;;;;;;;;4182443;28;20411;-62
2024/02/26 07:59:09;;;;;;;;;;;;;;;;;;4182360;28;19921;-62
2024/02/26 08:01:11;;;;;;;;;;;;;;;;;;4182249;28;19974;-63
2024/02/26 08:03:15;;;;;;;;;;;;;;;;;;4182104;28;20004;-62
2024/02/26 08:05:17;;;;;;;;;;;;;;;;;;4182686;28;19939;-63
2024/02/26 08:07:20;;;;;;;;;;;;;;;;;;4182647;28;19927;-62
2024/02/26 08:09:21;;;;;;;;;;;;;;;;;;4182114;28;19924;-62
2024/02/26 08:11:23;;;;;;;;;;;;;;;;;;4181959;28;19924;-63
2024/02/26 08:13:24;;;;;;;;;;;;;;;;;;4181926;28;19947;-62
2024/02/26 08:15:27;;;;;;;;;;;;;;;;;;4164178;28;19924;-63
2024/02/26 08:17:28;;;;;;;;;;;;;;;;;;4182086;28;20011;-63
2024/02/26 08:19:30;;;;;;;;;;;;;;;;;;4182041;28;19932;-63
2024/02/26 08:21:31;;;;;;;;;;;;;;;;;;4181917;28;20372;-63
2024/02/26 08:23:33;;;;;;;;;;;;;;;;;;4181846;28;19927;-63
2024/02/26 08:25:34;;;;;;;;;;;;;;;;;;4181855;28;20292;-63
2024/02/26 08:27:36;;;;;;;;;;;;;;;;;;4181854;28;20350;-62
2024/02/26 08:29:37;;;;;;;;;;;;;;;;;;4181345;28;19924;-63
2024/02/26 08:31:39;;;;;;;;;;;;;;;;;;4181655;28;19921;-62
2024/02/26 08:33:40;;;;;;;;;;;;;;;;;;4181709;28;19951;-62
2024/02/26 08:35:42;;;;;;;;;;;;;;;;;;4188595;28;19931;-63
2024/02/26 08:37:44;;;;;;;;;;;;;;;;;;4215026;28;19955;-64
2024/02/26 08:39:45;;;;;;;;;;;;;;;;;;4214997;28;19924;-63
2024/02/26 08:41:47;;;;;;;;;;;;;;;;;;4196624;28;19974;-63
2024/02/26 08:43:48;;;;;;;;;;;;;;;;;;4214811;28;19970;-64
2024/02/26 08:45:50;;;;;;;;;;;;;;;;;;4214919;28;19966;-63
2024/02/26 08:47:51;;;;;;;;;;;;;;;;;;4214773;28;19920;-63
2024/02/26 08:49:53;;;;;;;;;;;;;;;;;;4185010;28;20396;-63
2024/02/26 08:51:55;;;;;;;;;;;;;;;;;;4181476;28;20320;-63
2024/02/26 08:53:56;;;;;;;;;;;;;;;;;;4181989;28;19920;-63
2024/02/26 08:55:58;;;;;;;;;;;;;;;;;;4163712;28;19975;-63
2024/02/26 08:57:59;;;;;;;;;;;;;;;;;;4181230;28;19970;-63
2024/02/26 09:00:01;;;;;;;;;;;;;;;;;;4181380;28;20292;-63
2024/02/26 09:02:02;;;;;;;;;;;;;;;;;;4181166;28;19921;-65
2024/02/26 09:04:04;;;;;;;;;;;;;;;;;;4181364;28;20308;-65
2024/02/26 09:06:06;;;;;;;;;;;;;;;;;;4181436;28;20369;-63
2024/02/26 09:08:08;;;;;;;;;;;;;;;;;;4181073;28;20015;-64
2024/02/26 09:10:10;;;;;;;;;;;;;;;;;;4181204;28;20288;-63
2024/02/26 09:12:12;;;;;;;;;;;;;;;;;;4181365;28;19928;-63
2024/02/26 09:14:13;;;;;;;;;;;;;;;;;;4181307;28;19970;-64
2024/02/26 09:16:15;;;;;;;;;;;;;;;;;;4181237;28;19959;-63
2024/02/26 09:18:16;;;;;;;;;;;;;;;;;;4181179;28;19921;-63
2024/02/26 09:20:21;;;;;;;;;;;;;;;;;;4181320;28;19924;-63
2024/02/26 09:22:23;;;;;;;;;;;;;;;;;;4180952;28;19921;-63
2024/02/26 09:24:24;;;;;;;;;;;;;;;;;;4181249;28;19955;-63
2024/02/26 09:26:26;;;;;;;;;;;;;;;;;;4181376;28;19920;-64
2024/02/26 09:28:27;;;;;;;;;;;;;;;;;;4181372;28;19921;-63
2024/02/26 09:30:29;;;;;;;;;;;;;;;;;;4163673;28;19925;-63
2024/02/26 09:32:30;;;;;;;;;;;;;;;;;;4196827;28;20375;-63
2024/02/26 09:34:33;;;;;;;;;;;;;;;;;;4214566;28;20383;-63
2024/02/26 09:36:35;;;;;;;;;;;;;;;;;;4214350;28;19926;-63
2024/02/26 09:38:37;;;;;;;;;;;;;;;;;;4214268;28;20458;-63
2024/02/26 09:40:49;;;;;;;;;;;;;;;;;;4214486;28;19920;-63
2024/02/26 09:42:51;;;;;;;;;;;;;;;;;;4199638;28;19920;-63
2024/02/26 09:44:52;;;;;;;;;;;;;;;;;;4208507;28;20384;-63
2024/02/26 09:46:54;;;;;;;;;;;;;;;;;;4184427;28;19968;-62
2024/02/26 09:48:55;;;;;;;;;;;;;;;;;;4184379;28;19924;-62
2024/02/26 09:50:57;;;;;;;;;;;;;;;;;;4184257;28;19925;-63
2024/02/26 09:53:00;;;;;;;;;;;;;;;;;;4184353;28;19925;-63
2024/02/26 09:55:03;;;;;;;;;;;;;;;;;;4166829;28;20019;-63
2024/02/26 09:57:04;;;;;;;;;;;;;;;;;;4184215;28;19924;-63
2024/02/26 09:59:06;;;;;;;;;;;;;;;;;;4184456;28;19928;-63
2024/02/26 10:01:07;;;;;;;;;;;;;;;;;;4184225;28;19924;-63
2024/02/26 10:03:09;;;;;;;;;;;;;;;;;;4183807;28;20011;-63
2024/02/26 10:05:11;;;;;;;;;;;;;;;;;;4166564;28;19968;-63
2024/02/26 10:07:12;;;;;;;;;;;;;;;;;;4184462;28;19921;-64
2024/02/26 10:09:16;;;;;;;;;;;;;;;;;;4183741;28;19925;-62
2024/02/26 10:11:17;;;;;;;;;;;;;;;;;;4184008;28;19920;-63
2024/02/26 10:13:20;;;;;;;;;;;;;;;;;;4183845;28;19920;-63
2024/02/26 10:15:21;;;;;;;;;;;;;;;;;;4200330;28;19924;-62
2024/02/26 10:17:23;;;;;;;;;;;;;;;;;;4200620;28;19924;-65
2024/02/26 10:19:24;;;;;;;;;;;;;;;;;;4200408;28;19924;-65
2024/02/26 10:21:26;;;;;;;;;;;;;;;;;;4200095;28;19964;-65
2024/02/26 10:23:28;;;;;;;;;;;;;;;;;;4200494;28;19925;-66
2024/02/26 10:25:31;;;;;;;;;;;;;;;;;;4200499;28;19920;-65
2024/02/26 10:27:32;;;;;;;;;;;;;;;;;;4200805;28;20356;-66
2024/02/26 10:29:34;;;;;;;;;;;;;;;;;;4214951;28;19926;-65
2024/02/26 10:31:35;;;;;;;;;;;;;;;;;;4217305;28;19919;-66
2024/02/26 10:33:37;;;;;;;;;;;;;;;;;;4216925;28;19928;-65
2024/02/26 10:35:42;;;;;;;;;;;;;;;;;;4216921;28;20011;-65
2024/02/26 10:37:43;;;;;;;;;;;;;;;;;;4216876;28;20014;-65
2024/02/26 10:39:45;;;;;;;;;;;;;;;;;;4216985;28;20330;-65
2024/02/26 10:41:46;;;;;;;;;;;;;;;;;;4197108;28;19924;-65
2024/02/26 10:43:48;;;;;;;;;;;;;;;;;;4183437;28;20576;-65
2024/02/26 10:45:49;;;;;;;;;;;;;;;;;;4183669;28;19963;-65
2024/02/26 10:47:51;;;;;;;;;;;;;;;;;;4183334;28;19920;-65
2024/02/26 10:49:52;;;;;;;;;;;;;;;;;;4183739;28;20364;-65
2024/02/26 10:51:54;;;;;;;;;;;;;;;;;;4190405;28;20293;-65
2024/02/26 10:53:57;;;;;;;;;;;;;;;;;;4189716;28;19921;-65
2024/02/26 10:56:02;;;;;;;;;;;;;;;;;;4195965;28;20011;-65
2024/02/26 10:58:03;;;;;;;;;;;;;;;;;;4193376;28;19927;-65
2024/02/26 11:00:05;;;;;;;;;;;;;;;;;;4193069;28;19924;-65
2024/02/26 11:02:06;;;;;;;;;;;;;;;;;;4183454;28;20323;-65
2024/02/26 11:04:07;;;;;;;;;;;;;;;;;;4199696;28;19959;-65
2024/02/26 11:06:10;;;;;;;;;;;;;;;;;;4189108;28;20315;-65
2024/02/26 11:08:12;;;;;;;;;;;;;;;;;;4191466;28;19959;-66
2024/02/26 11:10:13;;;;;;;;;;;;;;;;;;4189867;28;19924;-65
2024/02/26 11:12:15;;;;;;;;;;;;;;;;;;4197122;28;19928;-65
2024/02/26 11:14:17;;;;;;;;;;;;;;;;;;4199505;28;20261;-65
2024/02/26 11:16:18;;;;;;;;;;;;;;;;;;4199070;28;19920;-65
2024/02/26 11:18:20;;;;;;;;;;;;;;;;;;4199387;28;19956;-65
2024/02/26 11:20:21;;;;;;;;;;;;;;;;;;4198903;28;19928;-65
2024/02/26 11:22:25;;;;;;;;;;;;;;;;;;4190156;28;19968;-65
2024/02/26 11:24:27;;;;;;;;;;;;;;;;;;4191258;28;20038;-65
2024/02/26 11:26:28;;;;;;;;;;;;;;;;;;4175455;28;19929;-65
2024/02/26 11:28:30;;;;;;;;;;;;;;;;;;4194326;28;19931;-64
2024/02/26 11:30:31;;;;;;;;;;;;;;;;;;4182766;28;19921;-65
2024/02/26 11:32:35;;;;;;;;;;;;;;;;;;4185071;28;19921;-64
2024/02/26 11:34:36;;;;;;;;;;;;;;;;;;4199040;28;19924;-65
2024/02/26 11:36:39;;;;;;;;;;;;;;;;;;4199242;28;19974;-65
2024/02/26 11:38:40;;;;;;;;;;;;;;;;;;4184320;28;20023;-64
2024/02/26 11:40:42;;;;;;;;;;;;;;;;;;4182612;28;19924;-64
2024/02/26 11:42:43;;;;;;;;;;;;;;;;;;4182427;28;19921;-65
2024/02/26 11:44:45;;;;;;;;;;;;;;;;;;4186971;28;20023;-65
2024/02/26 11:46:48;;;;;;;;;;;;;;;;;;4189633;28;19921;-65
2024/02/26 11:48:49;;;;;;;;;;;;;;;;;;4186349;28;19921;-64
2024/02/26 11:50:51;;;;;;;;;;;;;;;;;;4195902;28;19921;-65
2024/02/26 11:52:53;;;;;;;;;;;;;;;;;;4186783;28;19921;-65
2024/02/26 11:54:55;;;;;;;;;;;;;;;;;;4184831;28;19927;-65
2024/02/26 11:56:56;;;;;;;;;;;;;;;;;;4185118;28;19920;-65
2024/02/26 11:58:58;;;;;;;;;;;;;;;;;;4186299;28;19927;-64
2024/02/26 12:00:59;;;;;;;;;;;;;;;;;;4183902;28;19931;-65
2024/02/26 12:03:04;;;;;;;;;;;;;;;;;;4193281;28;19924;-65
2024/02/26 12:05:05;;;;;;;;;;;;;;;;;;4188580;28;19985;-65
2024/02/26 12:07:07;;;;;;;;;;;;;;;;;;4189636;28;19925;-65
2024/02/26 12:09:08;;;;;;;;;;;;;;;;;;4185156;28;19921;-64
2024/02/26 12:11:10;;;;;;;;;;;;;;;;;;4193688;28;19924;-65
2024/02/26 12:13:14;;;;;;;;;;;;;;;;;;4198435;28;19927;-65
2024/02/26 12:15:21;;;;;;;;;;;;;;;;;;4197555;28;19924;-65
2024/02/26 12:17:23;;;;;;;;;;;;;;;;;;4189949;28;19932;-65
2024/02/26 12:19:24;;;;;;;;;;;;;;;;;;4186888;28;19927;-65
2024/02/26 12:21:26;;;;;;;;;;;;;;;;;;4199653;28;19927;-65
2024/02/26 12:23:28;;;;;;;;;;;;;;;;;;4191567;28;20024;-65
2024/02/26 12:25:30;;;;;;;;;;;;;;;;;;4190332;28;20380;-65
2024/02/26 12:27:31;;;;;;;;;;;;;;;;;;4184222;28;19928;-66
2024/02/26 12:29:33;;;;;;;;;;;;;;;;;;4185964;28;19960;-66
2024/02/26 12:31:36;;;;;;;;;;;;;;;;;;4192676;28;20288;-65
2024/02/26 12:33:38;;;;;;;;;;;;;;;;;;4181730;28;19943;-66
2024/02/26 12:35:40;;;;;;;;;;;;;;;;;;4181983;28;19925;-66
2024/02/26 12:37:42;;;;;;;;;;;;;;;;;;4182211;28;19920;-66
2024/02/26 12:39:45;;;;;;;;;;;;;;;;;;4163733;28;20381;-66
2024/02/26 12:41:50;;;;;;;;;;;;;;;;;;4165809;28;19925;-67
2024/02/26 12:43:51;;;;;;;;;;;;;;;;;;4193593;28;19966;-67
2024/02/26 12:45:53;;;;;;;;;;;;;;;;;;4194406;28;19921;-68
2024/02/26 12:47:54;;;;;;;;;;;;;;;;;;4181476;28;20343;-68
2024/02/26 12:49:56;;;;;;;;;;;;;;;;;;4181630;28;19921;-68
2024/02/26 12:52:01;;;;;;;;;;;;;;;;;;4163803;28;20364;-68
2024/02/26 12:54:03;;;;;;;;;;;;;;;;;;4131186;28;19926;-68
2024/02/26 12:56:04;;;;;;;;;;;;;;;;;;4181468;28;19924;-68
2024/02/26 12:58:08;;;;;;;;;;;;;;;;;;4182088;28;19971;-68
2024/02/26 13:00:09;;;;;;;;;;;;;;;;;;4179613;28;19944;-68
2024/02/26 13:02:11;;;;;;;;;;;;;;;;;;4180961;28;20436;-68
2024/02/26 13:04:12;;;;;;;;;;;;;;;;;;4163522;28;20035;-69
2024/02/26 13:06:14;;;;;;;;;;;;;;;;;;4181707;28;19968;-69
2024/02/26 13:08:16;;;;;;;;;;;;;;;;;;4167466;28;19921;-69
2024/02/26 13:10:18;;;;;;;;;;;;;;;;;;4186466;28;19921;-69
2024/02/26 13:12:19;;;;;;;;;;;;;;;;;;4163618;28;19921;-69
2024/02/26 13:14:21;;;;;;;;;;;;;;;;;;4181220;28;19921;-69
2024/02/26 13:16:22;;;;;;;;;;;;;;;;;;4181214;28;19920;-68
2024/02/26 13:18:24;;;;;;;;;;;;;;;;;;4211711;28;19967;-68
2024/02/26 13:20:26;;;;;;;;;;;;;;;;;;4214594;28;19920;-68
2024/02/26 13:22:30;;;;;;;;;;;;;;;;;;4214389;28;19920;-68
2024/02/26 13:24:31;;;;;;;;;;;;;;;;;;4214255;28;19927;-68
2024/02/26 13:26:33;;;;;;;;;;;;;;;;;;4214372;28;19920;-68
2024/02/26 13:28:34;;;;;;;;;;;;;;;;;;4214616;28;19954;-68
2024/02/26 13:30:36;;;;;;;;;;;;;;;;;;4193583;28;19951;-68
2024/02/26 13:32:37;;;;;;;;;;;;;;;;;;4163623;28;19921;-68
2024/02/26 13:34:39;;;;;;;;;;;;;;;;;;4181002;28;20380;-68
2024/02/26 13:36:41;;;;;;;;;;;;;;;;;;4181143;28;19925;-68
2024/02/26 13:38:42;;;;;;;;;;;;;;;;;;4181064;28;19921;-69
2024/02/26 13:40:44;;;;;;;;;;;;;;;;;;4181024;28;19925;-69
2024/02/26 13:42:48;;;;;;;;;;;;;;;;;;4180435;28;19925;-69
2024/02/26 13:44:49;;;;;;;;;;;;;;;;;;4179232;28;19921;-69
2024/02/26 13:46:51;;;;;;;;;;;;;;;;;;4179842;28;19924;-69
2024/02/26 13:48:54;;;;;;;;;;;;;;;;;;4181409;28;19978;-68
2024/02/26 13:50:56;;;;;;;;;;;;;;;;;;4180382;28;20015;-68
2024/02/26 13:52:58;;;;;;;;;;;;;;;;;;4180402;28;19927;-69